sensor_id;sensor_type;location;lat;lon;timestamp;temperature;humidity
5592;DHT22;2818;49.790;9.958;2022-08-21T00:01:38;19.40;99.90
5592;DHT22;2818;49.790;9.958;2022-08-21T00:04:07;19.30;99.90
5592;DHT22;2818;49.790;9.958;2022-08-21T00:06:35;19.30;99.90
5592;DHT22;2818;49.790;9.958;2022-08-21T00:09:04;19.30;99.90
5592;DHT22;2818;49.790;9.958;2022-08-21T00:11:33;19.30;99.90
5592;DHT22;2818;49.790;9.958;2022-08-21T00:14:03;19.30;99.90
5592;DHT22;2818;49.790;9.958;2022-08-21T00:16:31;19.20;99.90
5592;DHT22;2818;49.790;9.958;2022-08-21T00:18:58;19.20;99.90
5592;DHT22;2818;49.790;9.958;2022-08-21T00:21:26;19.20;99.90
5592;DHT22;2818;49.790;9.958;2022-08-21T00:23:53;19.20;99.90
5592;DHT22;2818;49.790;9.958;2022-08-21T00:26:20;19.20;99.90
5592;DHT22;2818;49.790;9.958;2022-08-21T00:28:47;19.20;99.90
5592;DHT22;2818;49.790;9.958;2022-08-21T00:31:16;19.10;99.90
5592;DHT22;2818;49.790;9.958;2022-08-21T00:33:44;19.10;99.90
5592;DHT22;2818;49.790;9.958;2022-08-21T00:36:12;19.10;99.90
5592;DHT22;2818;49.790;9.958;2022-08-21T00:38:40;19.00;99.90
5592;DHT22;2818;49.790;9.958;2022-08-21T00:41:10;19.00;99.90
5592;DHT22;2818;49.790;9.958;2022-08-21T00:43:57;19.00;99.90
5592;DHT22;2818;49.790;9.958;2022-08-21T00:46:25;18.90;99.90
5592;DHT22;2818;49.790;9.958;2022-08-21T00:48:54;18.90;99.90
5592;DHT22;2818;49.790;9.958;2022-08-21T00:51:32;18.90;99.90
5592;DHT22;2818;49.790;9.958;2022-08-21T00:54:05;18.90;99.90
5592;DHT22;2818;49.790;9.958;2022-08-21T00:56:48;18.80;99.90
5592;DHT22;2818;49.790;9.958;2022-08-21T00:59:18;18.80;99.90
5592;DHT22;2818;49.790;9.958;2022-08-21T01:01:46;18.80;99.90
5592;DHT22;2818;49.790;9.958;2022-08-21T01:04:13;18.70;99.90
5592;DHT22;2818;49.790;9.958;2022-08-21T01:06:42;18.70;99.90
5592;DHT22;2818;49.790;9.958;2022-08-21T01:09:09;18.70;99.90
5592;DHT22;2818;49.790;9.958;2022-08-21T01:11:36;18.70;99.90
5592;DHT22;2818;49.790;9.958;2022-08-21T01:14:04;18.60;99.90
5592;DHT22;2818;49.790;9.958;2022-08-21T01:16:32;18.50;99.90
5592;DHT22;2818;49.790;9.958;2022-08-21T01:19:00;18.50;99.90
5592;DHT22;2818;49.790;9.958;2022-08-21T01:21:27;18.50;99.90
5592;DHT22;2818;49.790;9.958;2022-08-21T01:23:56;18.40;99.90
5592;DHT22;2818;49.790;9.958;2022-08-21T01:26:26;18.40;99.90
5592;DHT22;2818;49.790;9.958;2022-08-21T01:31:37;18.40;99.90
5592;DHT22;2818;49.790;9.958;2022-08-21T01:34:05;18.30;99.90
5592;DHT22;2818;49.790;9.958;2022-08-21T01:36:33;18.30;99.90
5592;DHT22;2818;49.790;9.958;2022-08-21T01:39:02;18.30;99.90
5592;DHT22;2818;49.790;9.958;2022-08-21T01:41:29;18.30;99.90
5592;DHT22;2818;49.790;9.958;2022-08-21T01:43:56;18.30;99.90
5592;DHT22;2818;49.790;9.958;2022-08-21T01:46:23;18.20;99.90
5592;DHT22;2818;49.790;9.958;2022-08-21T01:48:51;18.20;99.90
5592;DHT22;2818;49.790;9.958;2022-08-21T01:51:18;18.20;99.90
5592;DHT22;2818;49.790;9.958;2022-08-21T01:53:45;18.20;99.90
5592;DHT22;2818;49.790;9.958;2022-08-21T01:56:15;18.20;99.90
5592;DHT22;2818;49.790;9.958;2022-08-21T01:58:44;18.20;99.90
5592;DHT22;2818;49.790;9.958;2022-08-21T02:01:12;18.10;99.90
5592;DHT22;2818;49.790;9.958;2022-08-21T02:03:40;18.10;99.90
5592;DHT22;2818;49.790;9.958;2022-08-21T02:06:12;18.10;99.90
5592;DHT22;2818;49.790;9.958;2022-08-21T02:08:40;18.10;99.90
5592;DHT22;2818;49.790;9.958;2022-08-21T02:11:07;18.10;99.90
5592;DHT22;2818;49.790;9.958;2022-08-21T02:13:34;18.00;99.90
5592;DHT22;2818;49.790;9.958;2022-08-21T02:16:02;18.00;99.90
5592;DHT22;2818;49.790;9.958;2022-08-21T02:18:29;18.00;99.90
5592;DHT22;2818;49.790;9.958;2022-08-21T02:20:56;18.00;99.90
5592;DHT22;2818;49.790;9.958;2022-08-21T02:23:23;18.00;99.90
5592;DHT22;2818;49.790;9.958;2022-08-21T02:26:05;17.90;99.90
5592;DHT22;2818;49.790;9.958;2022-08-21T02:28:34;17.90;99.90
5592;DHT22;2818;49.790;9.958;2022-08-21T02:31:02;17.90;99.90
5592;DHT22;2818;49.790;9.958;2022-08-21T02:33:29;17.90;99.90
5592;DHT22;2818;49.790;9.958;2022-08-21T02:35:57;17.90;99.90
5592;DHT22;2818;49.790;9.958;2022-08-21T02:38:29;17.90;99.90
5592;DHT22;2818;49.790;9.958;2022-08-21T02:40:57;17.80;99.90
5592;DHT22;2818;49.790;9.958;2022-08-21T02:43:26;17.80;99.90
5592;DHT22;2818;49.790;9.958;2022-08-21T02:45:55;17.80;99.90
5592;DHT22;2818;49.790;9.958;2022-08-21T02:48:28;17.80;99.90
5592;DHT22;2818;49.790;9.958;2022-08-21T02:51:10;17.80;99.90
5592;DHT22;2818;49.790;9.958;2022-08-21T02:53:40;17.70;99.90
5592;DHT22;2818;49.790;9.958;2022-08-21T02:56:09;17.70;99.90
5592;DHT22;2818;49.790;9.958;2022-08-21T02:58:40;17.60;99.90
5592;DHT22;2818;49.790;9.958;2022-08-21T03:01:09;17.60;99.90
5592;DHT22;2818;49.790;9.958;2022-08-21T03:03:38;17.60;99.90
5592;DHT22;2818;49.790;9.958;2022-08-21T03:06:07;17.60;99.90
5592;DHT22;2818;49.790;9.958;2022-08-21T03:08:35;17.60;99.90
5592;DHT22;2818;49.790;9.958;2022-08-21T03:11:02;17.50;99.90
5592;DHT22;2818;49.790;9.958;2022-08-21T03:13:32;17.50;99.90
5592;DHT22;2818;49.790;9.958;2022-08-21T03:15:59;17.40;99.90
5592;DHT22;2818;49.790;9.958;2022-08-21T03:18:27;17.40;99.90
5592;DHT22;2818;49.790;9.958;2022-08-21T03:20:54;17.40;99.90
5592;DHT22;2818;49.790;9.958;2022-08-21T03:23:22;17.30;99.90
5592;DHT22;2818;49.790;9.958;2022-08-21T03:25:49;17.30;99.90
5592;DHT22;2818;49.790;9.958;2022-08-21T03:28:21;17.30;99.90
5592;DHT22;2818;49.790;9.958;2022-08-21T03:30:50;17.20;99.90
5592;DHT22;2818;49.790;9.958;2022-08-21T03:33:18;17.20;99.90
5592;DHT22;2818;49.790;9.958;2022-08-21T03:35:49;17.10;99.90
5592;DHT22;2818;49.790;9.958;2022-08-21T03:38:19;17.00;99.90
5592;DHT22;2818;49.790;9.958;2022-08-21T03:40:52;17.00;99.90
5592;DHT22;2818;49.790;9.958;2022-08-21T03:43:19;17.00;99.90
5592;DHT22;2818;49.790;9.958;2022-08-21T03:45:46;16.90;99.90
5592;DHT22;2818;49.790;9.958;2022-08-21T03:48:14;16.80;99.90
5592;DHT22;2818;49.790;9.958;2022-08-21T03:50:43;16.80;99.90
5592;DHT22;2818;49.790;9.958;2022-08-21T03:53:11;16.80;99.90
5592;DHT22;2818;49.790;9.958;2022-08-21T03:55:47;16.70;99.90
5592;DHT22;2818;49.790;9.958;2022-08-21T03:58:17;16.70;99.90
5592;DHT22;2818;49.790;9.958;2022-08-21T04:00:46;16.60;99.90
5592;DHT22;2818;49.790;9.958;2022-08-21T04:03:13;16.60;99.90
5592;DHT22;2818;49.790;9.958;2022-08-21T04:05:41;16.60;99.90
5592;DHT22;2818;49.790;9.958;2022-08-21T04:08:08;16.60;99.90
5592;DHT22;2818;49.790;9.958;2022-08-21T04:10:37;16.60;99.90
5592;DHT22;2818;49.790;9.958;2022-08-21T04:13:06;16.60;99.90
5592;DHT22;2818;49.790;9.958;2022-08-21T04:15:34;16.50;99.90
5592;DHT22;2818;49.790;9.958;2022-08-21T04:18:02;16.50;99.90
5592;DHT22;2818;49.790;9.958;2022-08-21T04:20:30;16.50;99.90
5592;DHT22;2818;49.790;9.958;2022-08-21T04:22:57;16.50;99.90
5592;DHT22;2818;49.790;9.958;2022-08-21T04:25:24;16.40;99.90
5592;DHT22;2818;49.790;9.958;2022-08-21T04:27:55;16.40;99.90
5592;DHT22;2818;49.790;9.958;2022-08-21T04:30:22;16.30;99.90
5592;DHT22;2818;49.790;9.958;2022-08-21T04:32:56;16.20;99.90
5592;DHT22;2818;49.790;9.958;2022-08-21T04:35:26;16.20;99.90
5592;DHT22;2818;49.790;9.958;2022-08-21T04:37:53;16.20;99.90
5592;DHT22;2818;49.790;9.958;2022-08-21T04:40:21;16.20;99.90
5592;DHT22;2818;49.790;9.958;2022-08-21T04:42:52;16.20;99.90
5592;DHT22;2818;49.790;9.958;2022-08-21T04:45:28;16.10;99.90
5592;DHT22;2818;49.790;9.958;2022-08-21T04:47:58;16.10;99.90
5592;DHT22;2818;49.790;9.958;2022-08-21T04:50:36;16.10;99.90
5592;DHT22;2818;49.790;9.958;2022-08-21T04:53:11;16.10;99.90
5592;DHT22;2818;49.790;9.958;2022-08-21T04:55:39;16.10;99.90
5592;DHT22;2818;49.790;9.958;2022-08-21T04:58:11;16.10;99.90
5592;DHT22;2818;49.790;9.958;2022-08-21T05:00:39;16.10;99.90
5592;DHT22;2818;49.790;9.958;2022-08-21T05:03:08;16.10;99.90
5592;DHT22;2818;49.790;9.958;2022-08-21T05:05:36;16.10;99.90
5592;DHT22;2818;49.790;9.958;2022-08-21T05:08:04;16.10;99.90
5592;DHT22;2818;49.790;9.958;2022-08-21T05:10:31;16.20;99.90
5592;DHT22;2818;49.790;9.958;2022-08-21T05:12:59;16.10;99.90
5592;DHT22;2818;49.790;9.958;2022-08-21T05:15:28;16.20;99.90
5592;DHT22;2818;49.790;9.958;2022-08-21T05:17:57;16.20;99.90
5592;DHT22;2818;49.790;9.958;2022-08-21T05:20:27;16.20;99.90
5592;DHT22;2818;49.790;9.958;2022-08-21T05:22:55;16.20;99.90
5592;DHT22;2818;49.790;9.958;2022-08-21T05:25:22;16.30;99.90
5592;DHT22;2818;49.790;9.958;2022-08-21T05:27:50;16.30;99.90
5592;DHT22;2818;49.790;9.958;2022-08-21T05:30:18;16.40;99.90
5592;DHT22;2818;49.790;9.958;2022-08-21T05:32:46;16.40;99.90
5592;DHT22;2818;49.790;9.958;2022-08-21T05:35:14;16.50;99.90
5592;DHT22;2818;49.790;9.958;2022-08-21T05:37:41;16.50;99.90
5592;DHT22;2818;49.790;9.958;2022-08-21T05:40:09;16.50;99.90
5592;DHT22;2818;49.790;9.958;2022-08-21T05:42:50;16.50;98.00
5592;DHT22;2818;49.790;9.958;2022-08-21T05:45:22;16.50;99.90
5592;DHT22;2818;49.790;9.958;2022-08-21T05:48:13;16.50;98.40
5592;DHT22;2818;49.790;9.958;2022-08-21T05:50:41;16.50;90.10
5592;DHT22;2818;49.790;9.958;2022-08-21T05:53:10;16.50;91.00
5592;DHT22;2818;49.790;9.958;2022-08-21T05:55:38;16.50;95.90
5592;DHT22;2818;49.790;9.958;2022-08-21T05:58:13;16.60;94.50
5592;DHT22;2818;49.790;9.958;2022-08-21T06:00:40;16.60;95.80
5592;DHT22;2818;49.790;9.958;2022-08-21T06:03:12;16.70;90.80
5592;DHT22;2818;49.790;9.958;2022-08-21T06:05:40;16.80;68.60
5592;DHT22;2818;49.790;9.958;2022-08-21T06:08:07;16.80;78.70
5592;DHT22;2818;49.790;9.958;2022-08-21T06:10:34;16.80;60.60
5592;DHT22;2818;49.790;9.958;2022-08-21T06:13:01;16.90;28.60
5592;DHT22;2818;49.790;9.958;2022-08-21T06:15:29;16.90;5.40
5592;DHT22;2818;49.790;9.958;2022-08-21T06:17:56;16.90;1.00
5592;DHT22;2818;49.790;9.958;2022-08-21T06:20:23;17.00;1.00
5592;DHT22;2818;49.790;9.958;2022-08-21T06:22:50;17.00;1.00
5592;DHT22;2818;49.790;9.958;2022-08-21T06:25:17;17.10;1.00
5592;DHT22;2818;49.790;9.958;2022-08-21T06:27:45;17.10;1.00
5592;DHT22;2818;49.790;9.958;2022-08-21T06:30:13;17.20;1.00
5592;DHT22;2818;49.790;9.958;2022-08-21T06:32:40;17.30;1.00
5592;DHT22;2818;49.790;9.958;2022-08-21T06:35:07;17.30;1.00
5592;DHT22;2818;49.790;9.958;2022-08-21T06:37:34;17.40;1.00
5592;DHT22;2818;49.790;9.958;2022-08-21T06:40:03;17.50;1.00
5592;DHT22;2818;49.790;9.958;2022-08-21T06:42:31;17.50;1.00
5592;DHT22;2818;49.790;9.958;2022-08-21T06:44:58;17.50;1.00
5592;DHT22;2818;49.790;9.958;2022-08-21T06:47:25;17.60;1.00
5592;DHT22;2818;49.790;9.958;2022-08-21T06:49:52;17.60;1.00
5592;DHT22;2818;49.790;9.958;2022-08-21T06:52:19;17.70;1.00
5592;DHT22;2818;49.790;9.958;2022-08-21T06:54:46;17.80;1.00
5592;DHT22;2818;49.790;9.958;2022-08-21T06:57:13;17.80;1.00
5592;DHT22;2818;49.790;9.958;2022-08-21T06:59:40;17.90;1.00
5592;DHT22;2818;49.790;9.958;2022-08-21T07:02:07;18.00;1.00
5592;DHT22;2818;49.790;9.958;2022-08-21T07:04:34;18.00;1.00
5592;DHT22;2818;49.790;9.958;2022-08-21T07:07:01;18.10;99.90
5592;DHT22;2818;49.790;9.958;2022-08-21T07:09:28;18.20;99.90
5592;DHT22;2818;49.790;9.958;2022-08-21T07:11:55;18.20;1.00
5592;DHT22;2818;49.790;9.958;2022-08-21T07:14:23;18.30;1.00
5592;DHT22;2818;49.790;9.958;2022-08-21T07:16:50;18.40;99.90
5592;DHT22;2818;49.790;9.958;2022-08-21T07:19:18;18.40;1.00
5592;DHT22;2818;49.790;9.958;2022-08-21T07:21:46;18.50;57.40
5592;DHT22;2818;49.790;9.958;2022-08-21T07:24:13;18.60;99.90
5592;DHT22;2818;49.790;9.958;2022-08-21T07:26:40;18.70;1.00
5592;DHT22;2818;49.790;9.958;2022-08-21T07:29:08;18.70;99.90
5592;DHT22;2818;49.790;9.958;2022-08-21T07:31:35;18.80;1.00
5592;DHT22;2818;49.790;9.958;2022-08-21T07:34:03;18.90;99.90
5592;DHT22;2818;49.790;9.958;2022-08-21T07:36:29;19.00;1.00
5592;DHT22;2818;49.790;9.958;2022-08-21T07:39:00;19.10;99.90
5592;DHT22;2818;49.790;9.958;2022-08-21T07:41:29;19.20;1.00
5592;DHT22;2818;49.790;9.958;2022-08-21T07:43:56;19.20;1.00
5592;DHT22;2818;49.790;9.958;2022-08-21T07:46:24;19.30;1.00
5592;DHT22;2818;49.790;9.958;2022-08-21T07:48:52;19.40;99.90
5592;DHT22;2818;49.790;9.958;2022-08-21T07:51:24;19.40;99.90
5592;DHT22;2818;49.790;9.958;2022-08-21T07:53:53;19.50;99.90
5592;DHT22;2818;49.790;9.958;2022-08-21T07:56:20;19.50;99.90
5592;DHT22;2818;49.790;9.958;2022-08-21T07:58:48;19.60;1.00
5592;DHT22;2818;49.790;9.958;2022-08-21T08:01:15;19.70;1.00
5592;DHT22;2818;49.790;9.958;2022-08-21T08:03:43;19.70;99.90
5592;DHT22;2818;49.790;9.958;2022-08-21T08:06:11;19.80;35.40
5592;DHT22;2818;49.790;9.958;2022-08-21T08:08:44;19.80;4.90
5592;DHT22;2818;49.790;9.958;2022-08-21T08:11:12;19.90;1.00
5592;DHT22;2818;49.790;9.958;2022-08-21T08:13:45;20.00;1.00
5592;DHT22;2818;49.790;9.958;2022-08-21T08:16:13;20.20;1.00
5592;DHT22;2818;49.790;9.958;2022-08-21T08:18:40;20.20;99.90
5592;DHT22;2818;49.790;9.958;2022-08-21T08:21:09;20.30;99.90
5592;DHT22;2818;49.790;9.958;2022-08-21T08:23:37;20.40;99.90
5592;DHT22;2818;49.790;9.958;2022-08-21T08:26:04;20.50;1.00
5592;DHT22;2818;49.790;9.958;2022-08-21T08:28:33;20.60;1.00
5592;DHT22;2818;49.790;9.958;2022-08-21T08:31:00;20.70;1.00
5592;DHT22;2818;49.790;9.958;2022-08-21T08:33:27;20.80;99.90
5592;DHT22;2818;49.790;9.958;2022-08-21T08:35:54;20.90;99.90
5592;DHT22;2818;49.790;9.958;2022-08-21T08:38:23;20.90;1.00
5592;DHT22;2818;49.790;9.958;2022-08-21T08:41:12;21.00;1.00
5592;DHT22;2818;49.790;9.958;2022-08-21T08:43:44;21.10;99.90
5592;DHT22;2818;49.790;9.958;2022-08-21T08:46:18;21.20;1.00
5592;DHT22;2818;49.790;9.958;2022-08-21T08:51:26;21.40;99.90
5592;DHT22;2818;49.790;9.958;2022-08-21T08:53:59;21.50;1.00
5592;DHT22;2818;49.790;9.958;2022-08-21T08:56:33;21.50;1.00
5592;DHT22;2818;49.790;9.958;2022-08-21T08:59:15;21.60;1.00
5592;DHT22;2818;49.790;9.958;2022-08-21T09:01:42;21.70;1.00
5592;DHT22;2818;49.790;9.958;2022-08-21T09:04:11;21.80;1.00
5592;DHT22;2818;49.790;9.958;2022-08-21T09:12:33;22.10;1.00
5592;DHT22;2818;49.790;9.958;2022-08-21T09:15:27;22.10;1.00
5592;DHT22;2818;49.790;9.958;2022-08-21T09:24:18;22.40;1.00
5592;DHT22;2818;49.790;9.958;2022-08-21T09:29:30;22.80;99.90
5592;DHT22;2818;49.790;9.958;2022-08-21T09:31:58;22.90;99.90
5592;DHT22;2818;49.790;9.958;2022-08-21T09:34:30;23.10;99.90
5592;DHT22;2818;49.790;9.958;2022-08-21T09:36:58;23.10;1.00
5592;DHT22;2818;49.790;9.958;2022-08-21T09:39:32;23.20;1.00
5592;DHT22;2818;49.790;9.958;2022-08-21T09:42:09;23.40;1.00
5592;DHT22;2818;49.790;9.958;2022-08-21T09:44:38;23.60;1.00
5592;DHT22;2818;49.790;9.958;2022-08-21T09:47:09;23.70;1.00
5592;DHT22;2818;49.790;9.958;2022-08-21T09:49:39;24.10;1.00
5592;DHT22;2818;49.790;9.958;2022-08-21T09:52:26;24.50;1.00
5592;DHT22;2818;49.790;9.958;2022-08-21T09:54:56;24.90;99.90
5592;DHT22;2818;49.790;9.958;2022-08-21T09:57:26;25.40;99.90
5592;DHT22;2818;49.790;9.958;2022-08-21T10:02:47;25.80;99.90
5592;DHT22;2818;49.790;9.958;2022-08-21T10:05:24;26.00;99.90
5592;DHT22;2818;49.790;9.958;2022-08-21T10:07:51;26.00;92.00
5592;DHT22;2818;49.790;9.958;2022-08-21T10:10:23;26.10;65.10
5592;DHT22;2818;49.790;9.958;2022-08-21T10:13:27;27.00;52.10
5592;DHT22;2818;49.790;9.958;2022-08-21T10:19:14;29.30;1.00
5592;DHT22;2818;49.790;9.958;2022-08-21T10:24:20;30.80;1.00
5592;DHT22;2818;49.790;9.958;2022-08-21T10:27:06;30.90;1.00
5592;DHT22;2818;49.790;9.958;2022-08-21T10:46:42;37.50;1.00
5592;DHT22;2818;49.790;9.958;2022-08-21T10:55:03;38.50;1.00
5592;DHT22;2818;49.790;9.958;2022-08-21T10:57:45;38.90;1.00
5592;DHT22;2818;49.790;9.958;2022-08-21T11:00:17;38.60;1.00
5592;DHT22;2818;49.790;9.958;2022-08-21T11:11:14;39.40;1.00
5592;DHT22;2818;49.790;9.958;2022-08-21T11:13:58;40.90;1.00
5592;DHT22;2818;49.790;9.958;2022-08-21T11:16:40;42.20;1.00
5592;DHT22;2818;49.790;9.958;2022-08-21T11:19:29;42.70;1.00
5592;DHT22;2818;49.790;9.958;2022-08-21T11:22:08;42.70;1.00
5592;DHT22;2818;49.790;9.958;2022-08-21T11:24:42;41.80;1.00
5592;DHT22;2818;49.790;9.958;2022-08-21T11:27:21;40.40;1.00
5592;DHT22;2818;49.790;9.958;2022-08-21T11:29:54;39.00;1.00
5592;DHT22;2818;49.790;9.958;2022-08-21T11:33:17;40.50;1.00
5592;DHT22;2818;49.790;9.958;2022-08-21T11:35:55;41.70;1.00
5592;DHT22;2818;49.790;9.958;2022-08-21T11:38:33;43.00;1.00
5592;DHT22;2818;49.790;9.958;2022-08-21T11:41:20;43.80;1.00
5592;DHT22;2818;49.790;9.958;2022-08-21T12:00:06;38.60;1.00
5592;DHT22;2818;49.790;9.958;2022-08-21T12:02:45;40.40;1.00
5592;DHT22;2818;49.790;9.958;2022-08-21T12:05:30;42.30;1.00
5592;DHT22;2818;49.790;9.958;2022-08-21T12:13:52;45.30;1.00
5592;DHT22;2818;49.790;9.958;2022-08-21T12:16:34;43.70;1.00
5592;DHT22;2818;49.790;9.958;2022-08-21T12:19:11;41.50;1.00
5592;DHT22;2818;49.790;9.958;2022-08-21T12:24:48;37.50;1.00
5592;DHT22;2818;49.790;9.958;2022-08-21T12:27:25;36.10;1.00
5592;DHT22;2818;49.790;9.958;2022-08-21T12:30:18;35.70;1.00
5592;DHT22;2818;49.790;9.958;2022-08-21T12:32:58;37.20;1.00
5592;DHT22;2818;49.790;9.958;2022-08-21T12:38:26;39.20;1.00
5592;DHT22;2818;49.790;9.958;2022-08-21T12:41:03;37.90;1.00
5592;DHT22;2818;49.790;9.958;2022-08-21T12:43:40;37.90;1.00
5592;DHT22;2818;49.790;9.958;2022-08-21T12:46:20;39.80;1.00
5592;DHT22;2818;49.790;9.958;2022-08-21T12:48:54;39.00;1.00
5592;DHT22;2818;49.790;9.958;2022-08-21T12:53:58;36.50;1.00
5592;DHT22;2818;49.790;9.958;2022-08-21T12:56:28;35.80;1.00
5592;DHT22;2818;49.790;9.958;2022-08-21T12:59:00;35.40;1.00
5592;DHT22;2818;49.790;9.958;2022-08-21T13:01:33;35.10;1.00
5592;DHT22;2818;49.790;9.958;2022-08-21T13:04:11;35.10;1.00
5592;DHT22;2818;49.790;9.958;2022-08-21T13:06:45;35.60;1.00
5592;DHT22;2818;49.790;9.958;2022-08-21T13:09:15;35.80;1.00
5592;DHT22;2818;49.790;9.958;2022-08-21T13:11:45;36.10;1.00
5592;DHT22;2818;49.790;9.958;2022-08-21T13:14:27;36.70;1.00
5592;DHT22;2818;49.790;9.958;2022-08-21T13:16:57;37.60;1.00
5592;DHT22;2818;49.790;9.958;2022-08-21T13:19:26;38.40;1.00
5592;DHT22;2818;49.790;9.958;2022-08-21T13:21:53;38.70;1.00
5592;DHT22;2818;49.790;9.958;2022-08-21T13:24:23;39.00;1.00
5592;DHT22;2818;49.790;9.958;2022-08-21T13:27:27;38.80;1.00
5592;DHT22;2818;49.790;9.958;2022-08-21T13:30:20;38.10;1.00
5592;DHT22;2818;49.790;9.958;2022-08-21T13:32:54;38.50;1.00
5592;DHT22;2818;49.790;9.958;2022-08-21T13:35:44;38.10;1.00
5592;DHT22;2818;49.790;9.958;2022-08-21T13:38:14;38.50;1.00
5592;DHT22;2818;49.790;9.958;2022-08-21T13:40:50;37.60;1.00
5592;DHT22;2818;49.790;9.958;2022-08-21T13:43:20;36.60;1.00
5592;DHT22;2818;49.790;9.958;2022-08-21T13:45:52;37.10;1.00
5592;DHT22;2818;49.790;9.958;2022-08-21T13:48:21;37.80;1.00
5592;DHT22;2818;49.790;9.958;2022-08-21T13:50:49;38.80;1.00
5592;DHT22;2818;49.790;9.958;2022-08-21T13:53:23;39.80;1.00
5592;DHT22;2818;49.790;9.958;2022-08-21T13:55:50;40.30;1.00
5592;DHT22;2818;49.790;9.958;2022-08-21T13:58:42;40.60;1.00
5592;DHT22;2818;49.790;9.958;2022-08-21T14:01:30;40.70;1.00
5592;DHT22;2818;49.790;9.958;2022-08-21T14:04:18;40.50;1.00
5592;DHT22;2818;49.790;9.958;2022-08-21T14:06:47;39.60;1.00
5592;DHT22;2818;49.790;9.958;2022-08-21T14:09:35;38.80;1.00
5592;DHT22;2818;49.790;9.958;2022-08-21T14:12:17;37.80;1.00
5592;DHT22;2818;49.790;9.958;2022-08-21T14:14:50;37.80;1.00
5592;DHT22;2818;49.790;9.958;2022-08-21T14:17:33;37.40;1.00
5592;DHT22;2818;49.790;9.958;2022-08-21T14:20:00;36.90;1.00
5592;DHT22;2818;49.790;9.958;2022-08-21T14:25:27;35.80;1.00
5592;DHT22;2818;49.790;9.958;2022-08-21T14:30:38;34.90;1.00
5592;DHT22;2818;49.790;9.958;2022-08-21T14:33:11;34.90;1.00
5592;DHT22;2818;49.790;9.958;2022-08-21T14:35:40;35.00;1.00
5592;DHT22;2818;49.790;9.958;2022-08-21T14:38:19;35.30;1.00
5592;DHT22;2818;49.790;9.958;2022-08-21T14:40:56;35.30;1.00
5592;DHT22;2818;49.790;9.958;2022-08-21T14:43:25;34.90;1.00
5592;DHT22;2818;49.790;9.958;2022-08-21T14:45:54;34.30;1.00
5592;DHT22;2818;49.790;9.958;2022-08-21T14:48:21;34.00;1.00
5592;DHT22;2818;49.790;9.958;2022-08-21T14:50:49;34.00;1.00
5592;DHT22;2818;49.790;9.958;2022-08-21T14:53:16;33.90;1.00
5592;DHT22;2818;49.790;9.958;2022-08-21T14:55:43;33.90;1.00
5592;DHT22;2818;49.790;9.958;2022-08-21T14:58:28;33.60;1.00
5592;DHT22;2818;49.790;9.958;2022-08-21T15:00:56;33.50;1.00
5592;DHT22;2818;49.790;9.958;2022-08-21T15:03:25;33.10;1.00
5592;DHT22;2818;49.790;9.958;2022-08-21T15:05:52;32.80;1.00
5592;DHT22;2818;49.790;9.958;2022-08-21T15:08:19;32.60;1.00
5592;DHT22;2818;49.790;9.958;2022-08-21T15:10:47;32.40;1.00
5592;DHT22;2818;49.790;9.958;2022-08-21T15:13:34;32.40;1.00
5592;DHT22;2818;49.790;9.958;2022-08-21T15:16:03;32.40;1.00
5592;DHT22;2818;49.790;9.958;2022-08-21T15:18:30;32.50;1.00
5592;DHT22;2818;49.790;9.958;2022-08-21T15:20:58;32.60;1.00
5592;DHT22;2818;49.790;9.958;2022-08-21T15:23:25;32.50;1.00
5592;DHT22;2818;49.790;9.958;2022-08-21T15:25:52;32.60;1.00
5592;DHT22;2818;49.790;9.958;2022-08-21T15:28:20;32.60;1.00
5592;DHT22;2818;49.790;9.958;2022-08-21T15:30:49;32.70;1.00
5592;DHT22;2818;49.790;9.958;2022-08-21T15:33:18;32.80;1.00
5592;DHT22;2818;49.790;9.958;2022-08-21T15:35:45;33.00;1.00
5592;DHT22;2818;49.790;9.958;2022-08-21T15:38:14;33.10;1.00
5592;DHT22;2818;49.790;9.958;2022-08-21T15:40:42;32.80;1.00
5592;DHT22;2818;49.790;9.958;2022-08-21T15:43:29;32.70;1.00
5592;DHT22;2818;49.790;9.958;2022-08-21T15:46:00;32.20;1.00
5592;DHT22;2818;49.790;9.958;2022-08-21T15:48:28;32.00;1.00
5592;DHT22;2818;49.790;9.958;2022-08-21T15:50:55;31.90;1.00
5592;DHT22;2818;49.790;9.958;2022-08-21T15:53:22;32.00;1.00
5592;DHT22;2818;49.790;9.958;2022-08-21T15:55:49;32.10;1.00
5592;DHT22;2818;49.790;9.958;2022-08-21T15:58:17;32.10;1.00
5592;DHT22;2818;49.790;9.958;2022-08-21T16:00:46;32.20;1.00
5592;DHT22;2818;49.790;9.958;2022-08-21T16:03:16;32.20;1.00
5592;DHT22;2818;49.790;9.958;2022-08-21T16:05:44;32.10;1.00
5592;DHT22;2818;49.790;9.958;2022-08-21T16:08:16;32.00;1.00
5592;DHT22;2818;49.790;9.958;2022-08-21T16:10:43;32.10;1.00
5592;DHT22;2818;49.790;9.958;2022-08-21T16:13:24;32.00;1.00
5592;DHT22;2818;49.790;9.958;2022-08-21T16:15:52;32.00;1.00
5592;DHT22;2818;49.790;9.958;2022-08-21T16:18:20;32.00;1.00
5592;DHT22;2818;49.790;9.958;2022-08-21T16:20:49;32.00;1.00
5592;DHT22;2818;49.790;9.958;2022-08-21T16:23:16;31.90;1.00
5592;DHT22;2818;49.790;9.958;2022-08-21T16:25:43;31.90;1.00
5592;DHT22;2818;49.790;9.958;2022-08-21T16:28:14;31.80;1.00
5592;DHT22;2818;49.790;9.958;2022-08-21T16:30:44;31.60;1.00
5592;DHT22;2818;49.790;9.958;2022-08-21T16:33:29;31.60;1.00
5592;DHT22;2818;49.790;9.958;2022-08-21T16:35:58;31.50;1.00
5592;DHT22;2818;49.790;9.958;2022-08-21T16:38:27;31.30;1.00
5592;DHT22;2818;49.790;9.958;2022-08-21T16:40:55;31.10;1.00
5592;DHT22;2818;49.790;9.958;2022-08-21T16:43:25;31.00;1.00
5592;DHT22;2818;49.790;9.958;2022-08-21T16:45:54;30.90;1.00
5592;DHT22;2818;49.790;9.958;2022-08-21T16:48:22;30.90;1.00
5592;DHT22;2818;49.790;9.958;2022-08-21T16:50:49;30.90;1.00
5592;DHT22;2818;49.790;9.958;2022-08-21T16:53:16;30.80;1.00
5592;DHT22;2818;49.790;9.958;2022-08-21T16:55:44;30.70;1.00
5592;DHT22;2818;49.790;9.958;2022-08-21T16:58:33;30.70;1.00
5592;DHT22;2818;49.790;9.958;2022-08-21T17:01:04;30.70;1.00
5592;DHT22;2818;49.790;9.958;2022-08-21T17:03:35;30.50;1.00
5592;DHT22;2818;49.790;9.958;2022-08-21T17:06:04;30.40;1.00
5592;DHT22;2818;49.790;9.958;2022-08-21T17:08:31;30.20;1.00
5592;DHT22;2818;49.790;9.958;2022-08-21T17:10:59;30.10;1.00
5592;DHT22;2818;49.790;9.958;2022-08-21T17:13:27;30.00;1.00
5592;DHT22;2818;49.790;9.958;2022-08-21T17:15:56;30.00;1.00
5592;DHT22;2818;49.790;9.958;2022-08-21T17:18:24;29.90;1.00
5592;DHT22;2818;49.790;9.958;2022-08-21T17:20:51;29.90;1.00
5592;DHT22;2818;49.790;9.958;2022-08-21T17:23:19;29.90;1.00
5592;DHT22;2818;49.790;9.958;2022-08-21T17:25:49;29.80;1.00
5592;DHT22;2818;49.790;9.958;2022-08-21T17:28:27;29.70;1.00
5592;DHT22;2818;49.790;9.958;2022-08-21T17:30:57;29.70;1.00
5592;DHT22;2818;49.790;9.958;2022-08-21T17:33:25;29.50;1.00
5592;DHT22;2818;49.790;9.958;2022-08-21T17:35:54;29.40;1.00
5592;DHT22;2818;49.790;9.958;2022-08-21T17:38:21;29.20;1.00
5592;DHT22;2818;49.790;9.958;2022-08-21T17:40:53;29.10;1.00
5592;DHT22;2818;49.790;9.958;2022-08-21T17:43:20;29.00;1.00
5592;DHT22;2818;49.790;9.958;2022-08-21T17:45:47;28.90;1.00
5592;DHT22;2818;49.790;9.958;2022-08-21T17:48:15;28.80;1.00
5592;DHT22;2818;49.790;9.958;2022-08-21T17:50:42;28.70;1.00
5592;DHT22;2818;49.790;9.958;2022-08-21T17:53:09;28.60;1.00
5592;DHT22;2818;49.790;9.958;2022-08-21T17:55:36;28.60;1.00
5592;DHT22;2818;49.790;9.958;2022-08-21T17:58:04;28.40;1.00
5592;DHT22;2818;49.790;9.958;2022-08-21T18:00:31;28.40;1.00
5592;DHT22;2818;49.790;9.958;2022-08-21T18:03:08;28.30;1.00
5592;DHT22;2818;49.790;9.958;2022-08-21T18:05:41;28.20;1.00
5592;DHT22;2818;49.790;9.958;2022-08-21T18:08:08;28.10;1.00
5592;DHT22;2818;49.790;9.958;2022-08-21T18:10:38;28.00;1.00